createdAt,value
2018-04-16T00:02:27.724Z,14.51
2018-04-16T00:04:56.117Z,14.50
2018-04-16T00:07:24.724Z,14.51
2018-04-16T00:09:53.075Z,14.51
2018-04-16T00:12:21.516Z,14.49
2018-04-16T00:14:49.906Z,14.48
2018-04-16T00:17:18.393Z,14.49
2018-04-16T00:19:46.768Z,14.50
2018-04-16T00:22:15.368Z,14.51
2018-04-16T00:24:44.080Z,14.49
2018-04-16T00:27:12.556Z,14.47
2018-04-16T00:29:40.911Z,14.43
2018-04-16T00:32:14.936Z,14.41
2018-04-16T00:34:49.010Z,14.39
2018-04-16T00:40:30.441Z,14.36
2018-04-16T00:43:04.626Z,14.34
2018-04-16T00:45:39.020Z,14.31
2018-04-16T00:48:13.297Z,14.29
2018-04-16T00:50:47.973Z,14.27
2018-04-16T00:53:22.017Z,14.25
2018-04-16T00:55:56.075Z,14.21
2018-04-16T00:58:30.082Z,14.19
2018-04-16T01:01:04.142Z,14.17
2018-04-16T01:03:37.942Z,14.15
2018-04-16T01:06:12.019Z,14.10
2018-04-16T01:08:46.279Z,14.07
2018-04-16T01:11:20.047Z,14.05
2018-04-16T01:13:54.235Z,14.00
2018-04-16T01:19:33.183Z,13.91
2018-04-16T01:22:07.224Z,13.87
2018-04-16T01:24:41.555Z,13.85
2018-04-16T01:30:20.529Z,13.83
2018-04-16T01:32:54.427Z,13.83
2018-04-16T01:35:28.255Z,13.82
2018-04-16T01:38:02.702Z,13.82
2018-04-16T01:40:37.108Z,13.80
2018-04-16T01:43:11.013Z,13.79
2018-04-16T01:45:45.308Z,13.78
2018-04-16T01:48:19.117Z,13.76
2018-04-16T01:50:53.040Z,13.76
2018-04-16T01:53:27.166Z,13.74
2018-04-16T01:56:00.977Z,13.69
2018-04-16T01:58:35.044Z,13.67
2018-04-16T02:01:09.128Z,13.66
2018-04-16T02:03:43.262Z,13.67
2018-04-16T02:06:17.289Z,13.63
2018-04-16T02:08:51.230Z,13.60
2018-04-16T02:11:25.531Z,13.57
2018-04-16T02:13:59.897Z,13.54
2018-04-16T02:16:33.908Z,13.51
2018-04-16T02:19:07.971Z,13.48
2018-04-16T02:21:42.398Z,13.50
2018-04-16T02:24:17.379Z,13.49
2018-04-16T02:26:51.745Z,13.50
2018-04-16T02:29:25.794Z,13.55
2018-04-16T02:31:59.750Z,13.58
2018-04-16T02:34:33.834Z,13.62
2018-04-16T02:37:07.905Z,13.65
2018-04-16T02:42:46.552Z,13.66
2018-04-16T02:45:20.674Z,13.64
2018-04-16T02:47:54.665Z,13.60
2018-04-16T02:50:28.581Z,13.57
2018-04-16T02:53:03.080Z,13.54
2018-04-16T02:55:37.285Z,13.49
2018-04-16T02:58:11.080Z,13.47
2018-04-16T03:00:45.216Z,13.41
2018-04-16T03:03:19.085Z,13.41
2018-04-16T03:05:53.296Z,13.43
2018-04-16T03:08:28.108Z,13.47
2018-04-16T03:11:02.181Z,13.48
2018-04-16T03:13:36.119Z,13.49
2018-04-16T03:16:10.318Z,13.46
2018-04-16T03:18:44.189Z,13.43
2018-04-16T03:21:18.234Z,13.43
2018-04-16T03:23:52.149Z,13.40
2018-04-16T03:26:26.232Z,13.38
2018-04-16T03:29:00.058Z,13.33
2018-04-16T03:31:34.172Z,13.27
2018-04-16T03:34:09.033Z,13.24
2018-04-16T03:36:43.129Z,13.21
2018-04-16T03:39:17.042Z,13.19
2018-04-16T03:41:50.987Z,13.22
2018-04-16T03:44:24.909Z,13.24
2018-04-16T03:46:58.973Z,13.24
2018-04-16T03:49:33.331Z,13.20
2018-04-16T03:52:09.193Z,13.18
2018-04-16T03:54:38.136Z,13.15
2018-04-16T03:57:06.493Z,13.18
2018-04-16T03:59:34.875Z,13.21
2018-04-16T04:02:03.237Z,13.20
2018-04-16T04:04:31.681Z,13.22
2018-04-16T04:07:00.207Z,13.22
2018-04-16T04:09:28.713Z,13.19
2018-04-16T04:11:57.225Z,13.14
2018-04-16T04:14:25.646Z,13.13
2018-04-16T04:16:54.259Z,13.15
2018-04-16T04:19:22.726Z,13.17
2018-04-16T04:21:51.157Z,13.18
2018-04-16T04:24:31.849Z,13.20
2018-04-16T04:27:12.247Z,13.26
2018-04-16T04:29:52.961Z,13.30
2018-04-16T04:32:21.512Z,13.35
2018-04-16T04:34:49.960Z,13.37
2018-04-16T04:37:18.345Z,13.38
2018-04-16T04:39:47.329Z,13.42
2018-04-16T04:42:15.777Z,13.44
2018-04-16T04:44:44.244Z,13.46
2018-04-16T04:47:12.933Z,13.48
2018-04-16T04:49:41.364Z,13.51
2018-04-16T04:52:10.148Z,13.56
2018-04-16T04:54:39.058Z,13.62
2018-04-16T04:57:08.993Z,13.66
2018-04-16T04:59:37.350Z,13.71
2018-04-16T05:02:06.589Z,13.73
2018-04-16T05:04:36.560Z,13.75
2018-04-16T05:07:04.985Z,13.75
2018-04-16T05:09:34.250Z,13.72
2018-04-16T05:12:03.242Z,13.66
2018-04-16T05:14:31.786Z,13.65
2018-04-16T05:17:00.507Z,13.66
2018-04-16T05:19:28.887Z,13.68
2018-04-16T05:21:57.962Z,13.70
2018-04-16T05:24:26.605Z,13.76
2018-04-16T05:26:55.104Z,13.80
2018-04-16T05:29:23.769Z,13.84
2018-04-16T05:31:52.649Z,13.90
2018-04-16T05:34:21.030Z,13.97
2018-04-16T05:36:49.679Z,14.06
2018-04-16T05:39:18.845Z,14.14
2018-04-16T05:41:47.275Z,14.23
2018-04-16T05:44:16.163Z,14.30
2018-04-16T05:46:44.592Z,14.32
2018-04-16T05:49:13.003Z,14.32
2018-04-16T05:51:41.353Z,14.32
2018-04-16T05:54:10.104Z,14.36
2018-04-16T05:56:38.525Z,14.36
2018-04-16T05:59:06.905Z,14.34
2018-04-16T06:01:36.263Z,14.33
2018-04-16T06:04:04.710Z,14.36
2018-04-16T06:06:33.077Z,14.44
2018-04-16T06:09:01.511Z,14.52
2018-04-16T06:11:30.336Z,14.61
2018-04-16T06:13:59.277Z,14.69
2018-04-16T06:16:27.719Z,14.72
2018-04-16T06:18:56.697Z,14.76
2018-04-16T06:21:25.361Z,14.80
2018-04-16T06:23:53.788Z,14.81
2018-04-16T06:26:22.815Z,14.86
2018-04-16T06:28:51.295Z,14.95
2018-04-16T06:31:19.692Z,15.05
2018-04-16T06:33:48.340Z,15.18
2018-04-16T06:36:16.874Z,15.30
2018-04-16T06:38:48.925Z,15.44
2018-04-16T06:41:17.807Z,15.57
2018-04-16T06:43:46.165Z,15.68
2018-04-16T06:46:15.514Z,15.78
2018-04-16T06:48:44.112Z,15.89
2018-04-16T06:51:12.596Z,15.96
2018-04-16T06:53:40.997Z,16.02
2018-04-16T06:56:10.522Z,16.07
2018-04-16T06:58:38.956Z,16.15
2018-04-16T07:01:08.004Z,16.20
2018-04-16T07:03:36.726Z,16.25
2018-04-16T07:06:05.961Z,16.31
2018-04-16T07:08:34.329Z,16.36
2018-04-16T07:11:02.756Z,16.41
2018-04-16T07:13:31.135Z,16.47
2018-04-16T07:15:59.674Z,16.51
2018-04-16T07:18:28.347Z,16.54
2018-04-16T07:20:57.054Z,16.56
2018-04-16T07:23:25.659Z,16.59
2018-04-16T07:25:54.037Z,16.61
2018-04-16T07:28:22.742Z,16.62
2018-04-16T07:30:51.591Z,16.62
2018-04-16T07:33:20.320Z,16.62
2018-04-16T07:35:49.084Z,16.62
2018-04-16T07:38:18.065Z,16.63
2018-04-16T07:40:47.586Z,16.59
2018-04-16T07:43:16.063Z,16.54
2018-04-16T07:45:44.978Z,16.50
2018-04-16T07:48:13.839Z,16.49
2018-04-16T07:50:42.622Z,16.48
2018-04-16T07:53:11.057Z,16.48
2018-04-16T07:55:39.523Z,16.46
2018-04-16T07:58:07.883Z,16.38
2018-04-16T08:00:36.245Z,16.29
2018-04-16T08:03:04.615Z,16.27
2018-04-16T08:05:33.451Z,16.21
2018-04-16T08:08:01.915Z,16.21
2018-04-16T08:10:30.313Z,16.22
2018-04-16T08:12:59.021Z,16.19
2018-04-16T08:15:27.852Z,16.15
2018-04-16T08:17:56.202Z,16.15
2018-04-16T08:20:24.807Z,16.20
2018-04-16T08:22:53.432Z,16.17
2018-04-16T08:25:21.889Z,16.14
2018-04-16T08:27:50.359Z,16.16
2018-04-16T08:30:18.730Z,16.15
2018-04-16T08:32:48.049Z,16.10
2018-04-16T08:35:16.611Z,16.05
2018-04-16T08:37:45.773Z,16.00
2018-04-16T08:40:14.244Z,16.00
2018-04-16T08:42:43.234Z,16.06
2018-04-16T08:45:12.023Z,16.07
2018-04-16T08:47:40.424Z,16.03
2018-04-16T08:50:09.298Z,16.05
2018-04-16T08:52:38.360Z,16.04
2018-04-16T08:55:07.004Z,16.02
2018-04-16T08:57:35.465Z,15.99
2018-04-16T09:00:03.943Z,15.98
2018-04-16T09:02:32.382Z,16.03
2018-04-16T09:05:00.738Z,16.07
2018-04-16T09:07:29.336Z,16.16
2018-04-16T09:09:57.966Z,16.24
2018-04-16T09:12:26.641Z,16.33
2018-04-16T09:14:55.643Z,16.48
2018-04-16T09:17:24.153Z,16.64
2018-04-16T09:19:52.487Z,16.74
2018-04-16T09:22:21.082Z,16.89
2018-04-16T09:24:49.929Z,17.04
2018-04-16T09:27:18.712Z,17.08
2018-04-16T09:29:47.111Z,17.15
2018-04-16T09:32:16.267Z,17.27
2018-04-16T09:34:44.638Z,17.38
2018-04-16T09:37:13.077Z,17.39
2018-04-16T09:39:41.736Z,17.45
2018-04-16T09:42:10.441Z,17.53
2018-04-16T09:44:39.338Z,17.64
2018-04-16T09:47:08.012Z,17.73
2018-04-16T09:49:36.846Z,17.77
2018-04-16T09:52:05.467Z,17.78
2018-04-16T09:54:34.357Z,17.77
2018-04-16T09:57:02.716Z,17.83
2018-04-16T09:59:31.364Z,17.88
2018-04-16T10:01:59.740Z,17.90
2018-04-16T10:04:28.461Z,17.86
2018-04-16T10:06:57.117Z,17.81
2018-04-16T10:09:25.565Z,17.83
2018-04-16T10:11:53.941Z,17.89
2018-04-16T10:14:23.270Z,17.93
2018-04-16T10:16:51.930Z,17.91
2018-04-16T10:19:20.932Z,17.88
2018-04-16T10:21:49.351Z,17.86
2018-04-16T10:24:18.061Z,17.80
2018-04-16T10:26:46.700Z,17.75
2018-04-16T10:29:15.402Z,17.72
2018-04-16T10:31:44.561Z,17.71
2018-04-16T10:34:13.277Z,17.70
2018-04-16T10:36:42.842Z,17.72
2018-04-16T10:39:11.860Z,17.71
2018-04-16T10:41:41.454Z,17.71
2018-04-16T10:44:09.837Z,17.71
2018-04-16T10:46:38.563Z,17.69
2018-04-16T10:49:07.394Z,17.64
2018-04-16T10:51:35.771Z,17.65
2018-04-16T10:54:04.485Z,17.74
2018-04-16T10:56:32.868Z,17.80
2018-04-16T10:59:02.644Z,17.83
2018-04-16T11:01:32.160Z,17.88
2018-04-16T11:04:00.855Z,17.84
2018-04-16T11:06:29.472Z,17.84
2018-04-16T11:08:57.853Z,17.78
2018-04-16T11:11:26.248Z,17.76
2018-04-16T11:13:55.115Z,17.74
2018-04-16T11:16:24.130Z,17.73
2018-04-16T11:18:54.084Z,17.79
2018-04-16T11:21:23.040Z,17.88
2018-04-16T11:23:52.183Z,17.99
2018-04-16T11:26:22.010Z,18.06
2018-04-16T11:28:52.215Z,18.26
2018-04-16T11:31:20.822Z,18.38
2018-04-16T11:33:50.483Z,18.44
2018-04-16T11:36:19.831Z,18.54
2018-04-16T11:38:48.656Z,18.82
2018-04-16T11:41:17.025Z,19.05
2018-04-16T11:43:45.390Z,19.27
2018-04-16T11:46:13.764Z,19.48
2018-04-16T11:48:42.164Z,19.57
2018-04-16T11:51:10.605Z,19.52
2018-04-16T11:53:38.969Z,19.37
2018-04-16T11:56:07.475Z,19.39
2018-04-16T11:58:35.911Z,19.35
2018-04-16T12:01:04.370Z,19.29
2018-04-16T12:03:32.820Z,19.20
2018-04-16T12:06:01.284Z,19.10
2018-04-16T12:08:29.835Z,19.06
2018-04-16T12:10:58.196Z,19.00
2018-04-16T12:13:26.563Z,18.93
2018-04-16T12:15:54.972Z,18.88
2018-04-16T12:18:24.439Z,18.80
2018-04-16T12:20:52.894Z,18.75
2018-04-16T12:23:21.660Z,18.73
2018-04-16T12:25:50.063Z,18.75
2018-04-16T12:28:18.587Z,18.75
2018-04-16T12:30:47.060Z,18.77
2018-04-16T12:33:16.709Z,18.83
2018-04-16T12:35:45.399Z,18.83
2018-04-16T12:38:14.266Z,18.84
2018-04-16T12:40:42.689Z,18.88
2018-04-16T12:43:11.572Z,18.97
2018-04-16T12:45:40.514Z,19.04
2018-04-16T12:48:09.012Z,19.13
2018-04-16T12:50:37.354Z,19.24
2018-04-16T12:53:06.377Z,19.35
2018-04-16T12:55:34.861Z,19.49
2018-04-16T12:58:03.310Z,19.60
2018-04-16T13:00:32.209Z,19.65
2018-04-16T13:03:01.079Z,19.78
2018-04-16T13:05:29.668Z,19.97
2018-04-16T13:07:58.515Z,20.10
2018-04-16T13:10:26.939Z,20.05
2018-04-16T13:12:55.311Z,19.96
2018-04-16T13:15:23.904Z,19.88
2018-04-16T13:17:52.682Z,19.78
2018-04-16T13:20:21.477Z,19.76
2018-04-16T13:22:49.862Z,19.84
2018-04-16T13:25:18.759Z,19.84
2018-04-16T13:27:47.181Z,19.79
2018-04-16T13:30:15.549Z,19.73
2018-04-16T13:32:44.003Z,19.70
2018-04-16T13:35:12.811Z,19.71
2018-04-16T13:37:41.201Z,19.79
2018-04-16T13:40:09.837Z,19.90
2018-04-16T13:42:38.416Z,19.99
2018-04-16T13:45:07.603Z,20.06
2018-04-16T13:47:35.975Z,20.07
2018-04-16T13:50:04.520Z,20.11
2018-04-16T13:52:33.114Z,20.20
2018-04-16T13:55:02.114Z,20.34
2018-04-16T13:57:30.940Z,20.40
2018-04-16T13:59:59.419Z,20.36
2018-04-16T14:02:27.941Z,20.30
2018-04-16T14:04:56.855Z,20.26
2018-04-16T14:07:26.048Z,20.26
2018-04-16T14:09:54.479Z,20.28
2018-04-16T14:12:22.856Z,20.33
2018-04-16T14:14:51.392Z,20.33
2018-04-16T14:17:19.964Z,20.30
2018-04-16T14:19:48.570Z,20.27
2018-04-16T14:22:16.995Z,20.18
2018-04-16T14:24:45.743Z,20.11
2018-04-16T14:27:14.099Z,20.00
2018-04-16T14:29:43.418Z,19.92
2018-04-16T14:32:11.800Z,19.88
2018-04-16T14:34:40.780Z,19.86
2018-04-16T14:37:09.150Z,19.90
2018-04-16T14:39:37.918Z,19.93
2018-04-16T14:42:06.728Z,19.97
2018-04-16T14:44:35.362Z,19.96
2018-04-16T14:47:04.120Z,19.95
2018-04-16T14:49:32.507Z,19.92
2018-04-16T14:52:01.121Z,19.93
2018-04-16T14:54:29.591Z,19.96
2018-04-16T14:56:58.796Z,19.95
2018-04-16T14:59:27.919Z,19.91
2018-04-16T15:01:56.345Z,19.90
2018-04-16T15:04:24.718Z,19.84
2018-04-16T15:06:53.076Z,19.81
2018-04-16T15:09:21.449Z,19.83
2018-04-16T15:11:49.828Z,19.82
2018-04-16T15:14:18.232Z,19.71
2018-04-16T15:16:46.600Z,19.60
2018-04-16T15:19:15.733Z,19.48
2018-04-16T15:21:44.428Z,19.40
2018-04-16T15:24:12.824Z,19.32
2018-04-16T15:26:41.476Z,19.26
2018-04-16T15:29:12.335Z,19.22
2018-04-16T15:31:40.812Z,19.15
2018-04-16T15:34:11.383Z,19.01
2018-04-16T15:36:40.446Z,18.84
2018-04-16T15:39:09.663Z,18.66
2018-04-16T15:41:38.220Z,18.50
2018-04-16T15:44:09.516Z,18.35
2018-04-16T15:46:39.224Z,18.28
2018-04-16T15:49:08.560Z,18.14
2018-04-16T15:51:38.805Z,18.03
2018-04-16T15:54:08.185Z,17.99
2018-04-16T15:56:36.778Z,17.90
2018-04-16T15:59:06.012Z,17.85
2018-04-16T16:01:35.534Z,17.82
2018-04-16T16:04:03.924Z,17.73
2018-04-16T16:06:34.923Z,17.61
2018-04-16T16:09:03.296Z,17.44
2018-04-16T16:11:31.660Z,17.35
2018-04-16T16:14:00.022Z,17.24
2018-04-16T16:16:28.410Z,17.11
2018-04-16T16:18:56.785Z,17.03
2018-04-16T16:21:25.780Z,16.93
2018-04-16T16:23:54.164Z,16.89
2018-04-16T16:26:22.565Z,16.87
2018-04-16T16:28:51.277Z,16.89
2018-04-16T16:31:20.112Z,16.90
2018-04-16T16:33:49.014Z,16.90
2018-04-16T16:36:17.971Z,16.90
2018-04-16T16:38:46.819Z,16.85
2018-04-16T16:41:15.589Z,16.80
2018-04-16T16:43:44.429Z,16.78
2018-04-16T16:46:15.337Z,16.74
2018-04-16T16:48:47.694Z,16.67
2018-04-16T16:51:16.157Z,16.60
2018-04-16T16:53:44.536Z,16.56
2018-04-16T16:56:12.935Z,16.50
2018-04-16T16:58:41.648Z,16.47
2018-04-16T17:01:10.045Z,16.43
2018-04-16T17:03:39.280Z,16.41
2018-04-16T17:06:07.684Z,16.41
2018-04-16T17:08:36.060Z,16.41
2018-04-16T17:11:04.801Z,16.41
2018-04-16T17:13:34.910Z,16.41
2018-04-16T17:16:03.378Z,16.43
2018-04-16T17:18:31.760Z,16.44
2018-04-16T17:21:00.220Z,16.44
2018-04-16T17:23:28.888Z,16.36
2018-04-16T17:25:58.207Z,16.27
2018-04-16T17:28:26.676Z,16.20
2018-04-16T17:30:55.147Z,16.12
2018-04-16T17:33:25.230Z,16.02
2018-04-16T17:35:53.667Z,15.96
2018-04-16T17:38:22.556Z,15.90
2018-04-16T17:40:51.137Z,15.78
2018-04-16T17:43:20.031Z,15.66
2018-04-16T17:45:48.816Z,15.53
2018-04-16T17:48:17.666Z,15.44
2018-04-16T17:50:46.700Z,15.37
2018-04-16T17:53:16.448Z,15.32
2018-04-16T17:55:46.081Z,15.30
2018-04-16T17:58:14.464Z,15.27
2018-04-16T18:00:42.860Z,15.20
2018-04-16T18:03:11.882Z,15.13
2018-04-16T18:05:41.738Z,15.09
2018-04-16T18:08:10.293Z,15.08
2018-04-16T18:10:40.426Z,15.02
2018-04-16T18:13:09.122Z,14.96
2018-04-16T18:15:37.768Z,14.89
2018-04-16T18:18:06.375Z,14.85
2018-04-16T18:20:34.956Z,14.84
2018-04-16T18:23:04.676Z,14.78
2018-04-16T18:25:33.044Z,14.73
2018-04-16T18:28:03.124Z,14.71
2018-04-16T18:30:32.525Z,14.64
2018-04-16T18:33:01.074Z,14.57
2018-04-16T18:38:05.234Z,14.42
2018-04-16T18:40:33.959Z,14.35
2018-04-16T18:43:03.244Z,14.29
2018-04-16T18:45:31.928Z,14.25
2018-04-16T18:48:00.534Z,14.21
2018-04-16T18:50:29.119Z,14.13
2018-04-16T18:52:57.634Z,14.07
2018-04-16T18:55:26.421Z,13.98
2018-04-16T18:57:54.961Z,13.88
2018-04-16T19:00:23.859Z,13.80
2018-04-16T19:02:52.284Z,13.71
2018-04-16T19:05:21.304Z,13.60
2018-04-16T19:07:50.113Z,13.51
2018-04-16T19:10:18.950Z,13.45
2018-04-16T19:12:47.762Z,13.42
2018-04-16T19:15:16.190Z,13.31
2018-04-16T19:17:50.254Z,13.23
2018-04-16T19:20:24.199Z,13.12
2018-04-16T19:22:52.580Z,13.04
2018-04-16T19:25:21.103Z,12.96
2018-04-16T19:27:55.322Z,12.88
2018-04-16T19:30:23.815Z,12.78
2018-04-16T19:32:57.693Z,12.65
2018-04-16T19:35:26.296Z,12.53
2018-04-16T19:37:54.839Z,12.46
2018-04-16T19:40:23.225Z,12.37
2018-04-16T19:42:51.603Z,12.31
2018-04-16T19:45:21.182Z,12.26
2018-04-16T19:47:49.571Z,12.18
2018-04-16T19:50:18.011Z,12.11
2018-04-16T19:52:46.492Z,12.05
2018-04-16T19:55:14.859Z,12.02
2018-04-16T19:57:48.871Z,12.01
2018-04-16T20:00:17.581Z,11.98
2018-04-16T20:02:52.054Z,11.97
2018-04-16T20:05:20.627Z,11.90
2018-04-16T20:07:48.994Z,11.82
2018-04-16T20:10:17.388Z,11.70
2018-04-16T20:12:45.794Z,11.60
2018-04-16T20:15:14.163Z,11.53
2018-04-16T20:17:42.566Z,11.44
2018-04-16T20:20:10.972Z,11.33
2018-04-16T20:22:39.803Z,11.26
2018-04-16T20:25:08.265Z,11.20
2018-04-16T20:27:36.738Z,11.14
2018-04-16T20:30:05.125Z,11.07
2018-04-16T20:32:33.667Z,10.96
2018-04-16T20:35:02.714Z,10.88
2018-04-16T20:37:31.441Z,10.80
2018-04-16T20:39:59.901Z,10.69
2018-04-16T20:42:28.276Z,10.57
2018-04-16T20:45:03.957Z,10.45
2018-04-16T20:47:32.479Z,10.39
2018-04-16T20:50:00.887Z,10.31
2018-04-16T20:52:29.324Z,10.27
2018-04-16T20:54:57.752Z,10.21
2018-04-16T20:57:26.136Z,10.16
2018-04-16T20:59:54.548Z,10.12
2018-04-16T21:02:22.925Z,10.06
2018-04-16T21:04:51.388Z,10.03
2018-04-16T21:07:19.794Z,10.00
2018-04-16T21:09:48.484Z,9.96
2018-04-16T21:12:16.870Z,9.93
2018-04-16T21:14:45.235Z,9.89
2018-04-16T21:17:14.747Z,9.90
2018-04-16T21:19:44.351Z,9.89
2018-04-16T21:22:12.890Z,9.88
2018-04-16T21:24:41.735Z,9.85
2018-04-16T21:27:10.183Z,9.85
2018-04-16T21:29:38.755Z,9.86
2018-04-16T21:32:07.195Z,9.87
2018-04-16T21:34:35.937Z,9.89
2018-04-16T21:37:04.339Z,9.92
2018-04-16T21:39:32.929Z,9.90
2018-04-16T21:42:01.362Z,9.86
2018-04-16T21:44:30.205Z,9.82
2018-04-16T21:46:58.968Z,9.76
2018-04-16T21:49:29.259Z,9.70
2018-04-16T21:51:58.706Z,9.62
2018-04-16T21:54:27.615Z,9.60
2018-04-16T21:56:56.356Z,9.59
2018-04-16T21:59:24.871Z,9.59
2018-04-16T22:01:53.387Z,9.58
2018-04-16T22:04:21.748Z,9.57
2018-04-16T22:06:50.208Z,9.52
2018-04-16T22:09:18.641Z,9.48
2018-04-16T22:11:47.167Z,9.45
2018-04-16T22:14:15.615Z,9.47
2018-04-16T22:16:43.998Z,9.46
2018-04-16T22:19:12.368Z,9.44
2018-04-16T22:21:40.797Z,9.39
2018-04-16T22:24:09.218Z,9.38
2018-04-16T22:26:37.580Z,9.37
2018-04-16T22:29:06.180Z,9.37
2018-04-16T22:31:34.764Z,9.35
2018-04-16T22:34:03.449Z,9.35
2018-04-16T22:36:32.068Z,9.35
2018-04-16T22:39:00.468Z,9.35
2018-04-16T22:41:28.818Z,9.34
2018-04-16T22:43:57.175Z,9.34
2018-04-16T22:46:25.539Z,9.35
2018-04-16T22:48:53.946Z,9.33
2018-04-16T22:51:22.379Z,9.36
2018-04-16T22:53:50.737Z,9.35
2018-04-16T22:56:19.462Z,9.38
2018-04-16T22:58:47.865Z,9.36
2018-04-16T23:01:16.236Z,9.33
2018-04-16T23:03:45.328Z,9.34
2018-04-16T23:06:14.259Z,9.35
2018-04-16T23:08:43.921Z,9.37
2018-04-16T23:11:12.777Z,9.39
2018-04-16T23:13:41.661Z,9.41
2018-04-16T23:16:12.095Z,9.39
2018-04-16T23:18:41.932Z,9.37
2018-04-16T23:21:13.167Z,9.39
2018-04-16T23:23:41.755Z,9.41
2018-04-16T23:26:21.438Z,9.39
2018-04-16T23:28:49.895Z,9.36
2018-04-16T23:31:18.437Z,9.31
2018-04-16T23:33:48.079Z,9.28
2018-04-16T23:36:16.525Z,9.27
2018-04-16T23:38:46.568Z,9.27
2018-04-16T23:41:15.704Z,9.28
2018-04-16T23:43:44.509Z,9.30
2018-04-16T23:46:14.441Z,9.34
2018-04-16T23:48:43.721Z,9.38
2018-04-16T23:51:15.899Z,9.41
2018-04-16T23:53:45.960Z,9.37
2018-04-16T23:56:14.467Z,9.29
2018-04-16T23:58:45.384Z,9.28
